createdAt,value
2023-05-10T00:00:01.800Z,0.00
2023-05-10T00:01:01.804Z,0.00
2023-05-10T00:02:01.856Z,0.00
2023-05-10T00:03:01.864Z,0.00
2023-05-10T00:04:01.827Z,0.00
2023-05-10T00:05:01.763Z,0.00
2023-05-10T00:06:01.741Z,0.00
2023-05-10T00:07:01.752Z,0.00
2023-05-10T00:08:01.724Z,0.00
2023-05-10T00:09:01.709Z,0.00
2023-05-10T00:10:01.679Z,0.00
2023-05-10T00:11:01.681Z,0.00
2023-05-10T00:12:01.676Z,0.00
2023-05-10T00:13:01.703Z,0.00
2023-05-10T00:14:01.635Z,0.00
2023-05-10T00:15:01.649Z,0.00
2023-05-10T00:16:01.723Z,0.00
2023-05-10T00:17:01.672Z,0.00
2023-05-10T00:18:01.686Z,0.00
2023-05-10T00:19:01.593Z,0.00
2023-05-10T00:20:01.608Z,0.00
2023-05-10T00:21:01.568Z,0.00
2023-05-10T00:22:01.545Z,0.00
2023-05-10T00:23:01.548Z,0.00
2023-05-10T00:24:01.548Z,0.00
2023-05-10T00:25:01.511Z,0.00
2023-05-10T00:26:01.496Z,0.00
2023-05-10T00:27:01.502Z,0.00
2023-05-10T00:28:01.509Z,0.00
2023-05-10T00:29:01.505Z,0.00
2023-05-10T00:30:01.457Z,0.00
2023-05-10T00:31:01.445Z,0.00
2023-05-10T00:32:01.454Z,0.00
2023-05-10T00:33:01.461Z,0.00
2023-05-10T00:34:01.448Z,0.00
2023-05-10T00:35:01.413Z,0.00
2023-05-10T00:36:01.390Z,0.00
2023-05-10T00:37:01.383Z,0.00
2023-05-10T00:38:01.367Z,0.00
2023-05-10T00:39:01.380Z,0.00
2023-05-10T00:40:01.370Z,0.00
2023-05-10T00:41:01.346Z,0.00
2023-05-10T00:42:01.325Z,0.00
2023-05-10T00:43:01.308Z,0.00
2023-05-10T00:44:01.322Z,0.00
2023-05-10T00:45:01.312Z,0.00
2023-05-10T00:46:01.294Z,0.00
2023-05-10T00:47:01.268Z,0.00
2023-05-10T00:48:01.286Z,0.00
2023-05-10T00:49:01.242Z,0.00
2023-05-10T00:50:01.242Z,0.00
2023-05-10T00:51:01.257Z,0.00
2023-05-10T00:52:01.210Z,0.00
2023-05-10T00:53:01.202Z,0.00
2023-05-10T00:54:01.186Z,0.00
2023-05-10T00:55:01.200Z,0.00
2023-05-10T00:56:01.173Z,0.00
2023-05-10T00:57:01.167Z,0.00
2023-05-10T00:58:01.137Z,0.00
2023-05-10T00:59:01.172Z,0.00
2023-05-10T01:00:01.140Z,0.00
2023-05-10T01:01:01.142Z,0.00
2023-05-10T01:02:01.094Z,0.00
2023-05-10T01:03:01.166Z,0.00
2023-05-10T01:04:01.081Z,0.00
2023-05-10T01:05:01.081Z,0.00
2023-05-10T01:06:01.053Z,0.00
2023-05-10T01:07:01.049Z,0.00
2023-05-10T01:08:01.037Z,0.00
2023-05-10T01:09:01.035Z,0.00
2023-05-10T01:10:01.010Z,0.00
2023-05-10T01:11:01.024Z,0.00
2023-05-10T01:12:01.033Z,0.00
2023-05-10T01:13:00.991Z,0.00
2023-05-10T01:14:00.976Z,0.00
2023-05-10T01:15:00.970Z,0.00
2023-05-10T01:16:01.047Z,0.00
2023-05-10T01:17:00.951Z,0.00
2023-05-10T01:18:00.980Z,0.00
2023-05-10T01:19:00.910Z,0.00
2023-05-10T01:20:00.909Z,0.00
2023-05-10T01:21:00.884Z,0.00
2023-05-10T01:22:00.890Z,0.00
2023-05-10T01:23:00.861Z,0.00
2023-05-10T01:24:00.871Z,0.00
2023-05-10T01:25:00.851Z,0.00
2023-05-10T01:26:00.822Z,0.00
2023-05-10T01:27:00.821Z,0.00
2023-05-10T01:28:00.802Z,0.00
2023-05-10T01:29:00.794Z,0.00
2023-05-10T01:30:14.266Z,0.00
2023-05-10T01:31:01.816Z,0.00
2023-05-10T01:32:00.794Z,0.00
2023-05-10T01:33:00.819Z,0.00
2023-05-10T01:34:00.764Z,0.00
2023-05-10T01:35:00.754Z,0.00
2023-05-10T01:36:00.750Z,0.00
2023-05-10T01:37:00.707Z,0.00
2023-05-10T01:38:00.688Z,0.00
2023-05-10T01:39:00.687Z,0.00
2023-05-10T01:40:00.672Z,0.00
2023-05-10T01:41:00.687Z,0.00
2023-05-10T01:42:00.647Z,0.00
2023-05-10T01:43:00.648Z,0.00
2023-05-10T01:44:00.642Z,0.00
2023-05-10T01:45:00.638Z,0.00
2023-05-10T01:46:00.598Z,0.00
2023-05-10T01:47:00.768Z,0.00
2023-05-10T01:48:00.661Z,0.00
2023-05-10T01:49:00.611Z,0.00
2023-05-10T01:50:00.554Z,0.00
2023-05-10T01:51:00.547Z,0.00
2023-05-10T01:52:00.562Z,0.00
2023-05-10T01:53:00.562Z,0.00
2023-05-10T01:54:00.521Z,0.00
2023-05-10T01:55:00.528Z,0.00
2023-05-10T01:56:00.502Z,0.00
2023-05-10T01:57:00.472Z,0.00
2023-05-10T01:58:00.514Z,0.00
2023-05-10T01:59:00.451Z,0.00
2023-05-10T02:00:00.443Z,0.00
2023-05-10T02:01:00.490Z,0.00
2023-05-10T02:02:00.422Z,0.00
2023-05-10T02:03:00.481Z,0.00
2023-05-10T02:04:00.448Z,0.00
2023-05-10T02:05:00.378Z,0.00
2023-05-10T02:06:00.374Z,0.00
2023-05-10T02:07:00.358Z,0.00
2023-05-10T02:08:00.367Z,0.00
2023-05-10T02:09:00.358Z,0.00
2023-05-10T02:10:00.328Z,0.00
2023-05-10T02:11:00.313Z,0.00
2023-05-10T02:12:00.303Z,0.00
2023-05-10T02:13:00.347Z,0.00
2023-05-10T02:14:00.298Z,0.00
2023-05-10T02:15:00.288Z,0.00
2023-05-10T02:16:00.262Z,0.00
2023-05-10T02:17:00.402Z,0.00
2023-05-10T02:18:00.314Z,0.00
2023-05-10T02:19:00.245Z,0.00
2023-05-10T02:20:00.248Z,0.00
2023-05-10T02:21:00.205Z,0.00
2023-05-10T02:22:00.213Z,0.00
2023-05-10T02:23:00.176Z,0.00
2023-05-10T02:24:00.202Z,0.00
2023-05-10T02:25:00.177Z,0.00
2023-05-10T02:26:00.166Z,0.00
2023-05-10T02:27:00.135Z,0.00
2023-05-10T02:28:00.151Z,0.00
2023-05-10T02:29:00.170Z,0.00
2023-05-10T02:30:00.169Z,0.00
2023-05-10T02:31:00.106Z,0.00
2023-05-10T02:32:00.158Z,0.00
2023-05-10T02:33:00.236Z,0.00
2023-05-10T02:34:00.077Z,0.00
2023-05-10T02:35:00.061Z,0.00
2023-05-10T02:36:00.053Z,0.00
2023-05-10T02:37:00.036Z,0.00
2023-05-10T02:38:00.023Z,0.00
2023-05-10T02:39:00.019Z,0.00
2023-05-10T02:40:00.040Z,0.00
2023-05-10T02:40:59.988Z,0.00
2023-05-10T02:41:59.972Z,0.00
2023-05-10T02:42:59.980Z,0.00
2023-05-10T02:43:59.962Z,0.00
2023-05-10T02:44:59.934Z,0.00
2023-05-10T02:45:59.927Z,0.00
2023-05-10T02:46:59.916Z,0.00
2023-05-10T02:47:59.930Z,0.00
2023-05-10T02:48:59.890Z,0.00
2023-05-10T02:49:59.899Z,0.00
2023-05-10T02:50:59.881Z,0.00
2023-05-10T02:51:59.876Z,0.00
2023-05-10T02:52:59.847Z,0.00
2023-05-10T02:53:59.855Z,0.00
2023-05-10T02:54:59.841Z,0.00
2023-05-10T02:55:59.823Z,0.00
2023-05-10T02:56:59.797Z,0.00
2023-05-10T02:57:59.797Z,0.00
2023-05-10T02:58:59.794Z,0.00
2023-05-10T02:59:59.835Z,0.00
2023-05-10T03:00:59.802Z,0.00
2023-05-10T03:01:59.778Z,0.00
2023-05-10T03:02:59.830Z,0.00
2023-05-10T03:03:59.752Z,0.00
2023-05-10T03:04:59.756Z,0.00
2023-05-10T03:05:59.701Z,0.00
2023-05-10T03:07:00.236Z,0.00
2023-05-10T03:07:59.706Z,0.00
2023-05-10T03:08:59.663Z,0.00
2023-05-10T03:09:59.673Z,0.00
2023-05-10T03:10:59.643Z,0.00
2023-05-10T03:11:59.641Z,0.00
2023-05-10T03:12:59.652Z,0.00
2023-05-10T03:13:59.623Z,0.00
2023-05-10T03:14:59.617Z,0.00
2023-05-10T03:15:59.639Z,0.00
2023-05-10T03:16:59.591Z,0.00
2023-05-10T03:17:59.594Z,0.00
2023-05-10T03:18:59.558Z,0.00
2023-05-10T03:19:59.544Z,0.00
2023-05-10T03:20:59.559Z,0.00
2023-05-10T03:21:59.523Z,0.00
2023-05-10T03:22:59.530Z,0.00
2023-05-10T03:23:59.542Z,0.00
2023-05-10T03:24:59.515Z,0.00
2023-05-10T03:25:59.487Z,0.00
2023-05-10T03:26:59.522Z,0.00
2023-05-10T03:27:59.453Z,0.00
2023-05-10T03:28:59.444Z,4.00
2023-05-10T03:29:59.462Z,4.00
2023-05-10T03:30:59.454Z,0.00
2023-05-10T03:31:59.412Z,0.00
2023-05-10T03:32:59.430Z,0.00
2023-05-10T03:33:59.402Z,4.00
2023-05-10T03:34:59.414Z,4.00
2023-05-10T03:35:59.394Z,4.00
2023-05-10T03:36:59.365Z,0.00
2023-05-10T03:37:59.344Z,4.00
2023-05-10T03:38:59.339Z,4.00
2023-05-10T03:39:59.338Z,4.00
2023-05-10T03:40:59.308Z,0.00
2023-05-10T03:41:59.315Z,4.00
2023-05-10T03:42:59.300Z,4.00
2023-05-10T03:43:59.296Z,4.00
2023-05-10T03:44:59.264Z,4.00
2023-05-10T03:45:59.264Z,8.00
2023-05-10T03:46:59.317Z,4.00
2023-05-10T03:47:59.276Z,4.00
2023-05-10T03:48:59.222Z,8.00
2023-05-10T03:49:59.252Z,8.00
2023-05-10T03:50:59.222Z,8.00
2023-05-10T03:51:59.207Z,4.00
2023-05-10T03:52:59.204Z,8.00
2023-05-10T03:53:59.166Z,8.00
2023-05-10T03:54:59.153Z,12.00
2023-05-10T03:55:59.157Z,12.00
2023-05-10T03:56:59.130Z,12.00
2023-05-10T03:57:59.137Z,16.00
2023-05-10T03:58:59.108Z,12.00
2023-05-10T03:59:59.127Z,12.00
2023-05-10T04:00:59.104Z,12.00
2023-05-10T04:01:59.123Z,16.00
2023-05-10T04:02:59.148Z,12.00
2023-05-10T04:03:59.098Z,16.00
2023-05-10T04:04:59.066Z,16.00
2023-05-10T04:05:59.123Z,20.00
2023-05-10T04:06:59.021Z,20.00
2023-05-10T04:07:59.031Z,20.00
2023-05-10T04:08:58.995Z,24.00
2023-05-10T04:09:59.021Z,24.00
2023-05-10T04:10:58.972Z,24.00
2023-05-10T04:11:59.092Z,28.00
2023-05-10T04:12:58.997Z,32.00
2023-05-10T04:13:58.937Z,36.00
2023-05-10T04:14:58.959Z,28.00
2023-05-10T04:15:58.916Z,32.00
2023-05-10T04:16:58.958Z,44.00
2023-05-10T04:17:59.035Z,40.00
2023-05-10T04:18:58.917Z,32.00
2023-05-10T04:19:58.865Z,40.00
2023-05-10T04:20:58.889Z,52.00
2023-05-10T04:21:58.860Z,48.00
2023-05-10T04:22:58.839Z,48.00
2023-05-10T04:23:58.830Z,48.00
2023-05-10T04:24:58.853Z,56.00
2023-05-10T04:25:58.803Z,52.00
2023-05-10T04:26:58.794Z,40.00
2023-05-10T04:27:58.801Z,40.00
2023-05-10T04:28:58.776Z,52.00
2023-05-10T04:29:58.766Z,52.00
2023-05-10T04:30:58.754Z,52.00
2023-05-10T04:31:58.745Z,68.00
2023-05-10T04:32:58.806Z,80.00
2023-05-10T04:33:58.710Z,68.00
2023-05-10T04:34:58.731Z,72.00
2023-05-10T04:35:58.707Z,76.00
2023-05-10T04:36:58.674Z,56.00
2023-05-10T04:37:58.678Z,40.00
2023-05-10T04:38:58.697Z,36.00
2023-05-10T04:39:58.645Z,40.00
2023-05-10T04:40:58.631Z,40.00
2023-05-10T04:41:58.642Z,40.00
2023-05-10T04:42:58.656Z,48.00
2023-05-10T04:43:58.630Z,60.00
2023-05-10T04:44:58.582Z,60.00
2023-05-10T04:45:58.644Z,64.00
2023-05-10T04:46:58.576Z,72.00
2023-05-10T04:47:58.624Z,60.00
2023-05-10T04:48:58.548Z,44.00
2023-05-10T04:49:58.547Z,60.00
2023-05-10T04:50:58.517Z,68.00
2023-05-10T04:51:58.525Z,68.00
2023-05-10T04:52:58.514Z,68.00
2023-05-10T04:54:06.247Z,80.00
2023-05-10T04:54:59.488Z,84.00
2023-05-10T04:55:58.471Z,72.00
2023-05-10T04:56:58.467Z,76.00
2023-05-10T04:57:58.471Z,92.00
2023-05-10T04:58:58.429Z,88.00
2023-05-10T04:59:58.446Z,80.00
2023-05-10T05:00:58.431Z,88.00
2023-05-10T05:01:58.451Z,100.00
2023-05-10T05:02:58.470Z,104.00
2023-05-10T05:03:58.488Z,100.00
2023-05-10T05:04:58.374Z,124.00
2023-05-10T05:05:58.348Z,160.00
2023-05-10T05:06:58.338Z,152.00
2023-05-10T05:07:58.333Z,148.00
2023-05-10T05:08:58.345Z,180.00
2023-05-10T05:09:58.326Z,236.00
2023-05-10T05:10:58.305Z,240.00
2023-05-10T05:11:58.294Z,240.00
2023-05-10T05:12:58.288Z,292.00
2023-05-10T05:13:58.275Z,300.00
2023-05-10T05:14:58.249Z,268.00
2023-05-10T05:15:58.289Z,288.00
2023-05-10T05:16:58.222Z,336.00
2023-05-10T05:17:58.273Z,304.00
2023-05-10T05:18:58.225Z,272.00
2023-05-10T05:19:58.200Z,292.00
2023-05-10T05:20:58.191Z,284.00
2023-05-10T05:21:58.194Z,228.00
2023-05-10T05:22:58.157Z,228.00
2023-05-10T05:23:58.147Z,260.00
2023-05-10T05:24:58.159Z,260.00
2023-05-10T05:25:58.136Z,224.00
2023-05-10T05:26:58.127Z,256.00
2023-05-10T05:27:58.119Z,280.00
2023-05-10T05:28:58.112Z,320.00
2023-05-10T05:29:58.105Z,264.00
2023-05-10T05:30:58.086Z,284.00
2023-05-10T05:31:58.187Z,260.00
2023-05-10T05:32:58.106Z,228.00
2023-05-10T05:33:58.040Z,188.00
2023-05-10T05:34:58.023Z,160.00
2023-05-10T05:35:58.026Z,164.00
2023-05-10T05:36:58.009Z,164.00
2023-05-10T05:37:57.995Z,148.00
2023-05-10T05:38:57.996Z,156.00
2023-05-10T05:39:57.990Z,208.00
2023-05-10T05:40:57.974Z,252.00
2023-05-10T05:41:57.944Z,256.00
2023-05-10T05:42:57.962Z,268.00
2023-05-10T05:43:57.919Z,332.00
2023-05-10T05:44:57.909Z,376.00
2023-05-10T05:45:57.935Z,332.00
2023-05-10T05:46:57.921Z,284.00
2023-05-10T05:47:57.928Z,372.00
2023-05-10T05:48:57.865Z,416.00
2023-05-10T05:49:57.867Z,400.00
2023-05-10T05:50:57.835Z,416.00
2023-05-10T05:51:57.840Z,380.00
2023-05-10T05:52:57.821Z,420.00
2023-05-10T05:53:57.810Z,400.00
2023-05-10T05:54:57.818Z,324.00
2023-05-10T05:55:57.788Z,316.00
2023-05-10T05:56:59.834Z,292.00
2023-05-10T05:57:57.790Z,240.00
2023-05-10T05:58:57.752Z,220.00
2023-05-10T05:59:57.766Z,244.00
2023-05-10T06:00:57.745Z,288.00
2023-05-10T06:01:57.773Z,292.00
2023-05-10T06:02:57.841Z,268.00
2023-05-10T06:03:57.912Z,260.00
2023-05-10T06:04:57.693Z,252.00
2023-05-10T06:05:57.682Z,236.00
2023-05-10T06:06:57.676Z,176.00
2023-05-10T06:07:57.661Z,144.00
2023-05-10T06:08:57.641Z,168.00
2023-05-10T06:09:57.641Z,196.00
2023-05-10T06:10:57.639Z,180.00
2023-05-10T06:11:57.610Z,176.00
2023-05-10T06:12:57.712Z,192.00
2023-05-10T06:13:57.652Z,216.00
2023-05-10T06:14:57.579Z,212.00
2023-05-10T06:15:57.576Z,208.00
2023-05-10T06:16:57.664Z,260.00
2023-05-10T06:17:57.718Z,276.00
2023-05-10T06:18:57.527Z,248.00
2023-05-10T06:19:57.561Z,204.00
2023-05-10T06:20:57.516Z,216.00
2023-05-10T06:21:57.501Z,220.00
2023-05-10T06:22:57.515Z,196.00
2023-05-10T06:23:57.476Z,180.00
2023-05-10T06:24:57.468Z,256.00
2023-05-10T06:25:57.453Z,288.00
2023-05-10T06:26:57.455Z,320.00
2023-05-10T06:27:57.471Z,344.00
2023-05-10T06:28:57.432Z,460.00
2023-05-10T06:30:09.211Z,480.00
2023-05-10T06:30:58.406Z,400.00
2023-05-10T06:31:57.424Z,340.00
2023-05-10T06:32:57.572Z,388.00
2023-05-10T06:33:57.364Z,396.00
2023-05-10T06:34:57.348Z,348.00
2023-05-10T06:35:57.359Z,368.00
2023-05-10T06:36:57.328Z,392.00
2023-05-10T06:37:57.323Z,488.00
2023-05-10T06:38:57.316Z,528.00
2023-05-10T06:39:57.343Z,536.00
2023-05-10T06:40:57.304Z,524.00
2023-05-10T06:41:57.275Z,548.00
2023-05-10T06:42:57.267Z,532.00
2023-05-10T06:43:57.260Z,460.00
2023-05-10T06:44:57.244Z,464.00
2023-05-10T06:45:57.246Z,384.00
2023-05-10T06:46:57.220Z,444.00
2023-05-10T06:47:57.255Z,420.00
2023-05-10T06:48:57.200Z,404.00
2023-05-10T06:49:57.202Z,424.00
2023-05-10T06:50:57.172Z,500.00
2023-05-10T06:51:57.183Z,508.00
2023-05-10T06:52:57.144Z,508.00
2023-05-10T06:53:57.171Z,672.00
2023-05-10T06:54:57.142Z,696.00
2023-05-10T06:55:57.112Z,708.00
2023-05-10T06:56:57.106Z,772.00
2023-05-10T06:57:57.102Z,820.00
2023-05-10T06:58:57.135Z,1008.00
2023-05-10T06:59:57.119Z,1040.00
2023-05-10T07:00:57.135Z,1064.00
2023-05-10T07:01:57.086Z,1208.00
2023-05-10T07:02:57.061Z,1476.00
2023-05-10T07:03:57.070Z,1608.00
2023-05-10T07:04:58.004Z,1596.00
2023-05-10T07:05:57.004Z,1660.00
2023-05-10T07:06:56.991Z,1908.00
2023-05-10T07:07:56.994Z,1964.00
2023-05-10T07:08:56.985Z,2364.00
2023-05-10T07:09:57.044Z,2220.00
2023-05-10T07:10:56.956Z,2692.00
2023-05-10T07:11:56.938Z,3524.00
2023-05-10T07:12:57.029Z,3656.00
2023-05-10T07:13:56.922Z,3004.00
2023-05-10T07:14:56.919Z,2220.00
2023-05-10T07:15:56.947Z,1956.00
2023-05-10T07:16:56.910Z,1776.00
2023-05-10T07:17:56.929Z,1596.00
2023-05-10T07:18:56.858Z,1220.00
2023-05-10T07:19:56.891Z,1028.00
2023-05-10T07:20:56.872Z,800.00
2023-05-10T07:21:56.819Z,812.00
2023-05-10T07:22:56.812Z,800.00
2023-05-10T07:23:56.851Z,732.00
2023-05-10T07:24:56.792Z,708.00
2023-05-10T07:25:56.769Z,768.00
2023-05-10T07:26:56.814Z,848.00
2023-05-10T07:27:56.749Z,836.00
2023-05-10T07:28:56.773Z,880.00
2023-05-10T07:29:56.726Z,864.00
2023-05-10T07:30:56.757Z,784.00
2023-05-10T07:31:58.896Z,836.00
2023-05-10T07:32:56.767Z,940.00
2023-05-10T07:33:56.702Z,1000.00
2023-05-10T07:34:56.687Z,988.00
2023-05-10T07:35:56.671Z,900.00
2023-05-10T07:36:56.680Z,916.00
2023-05-10T07:37:56.660Z,896.00
2023-05-10T07:38:56.625Z,860.00
2023-05-10T07:39:56.641Z,808.00
2023-05-10T07:40:56.634Z,748.00
2023-05-10T07:41:56.587Z,660.00
2023-05-10T07:42:56.599Z,640.00
2023-05-10T07:43:56.584Z,688.00
2023-05-10T07:44:56.558Z,696.00
2023-05-10T07:45:56.623Z,720.00
2023-05-10T07:46:56.540Z,736.00
2023-05-10T07:47:56.565Z,844.00
2023-05-10T07:48:56.552Z,964.00
2023-05-10T07:49:56.516Z,936.00
2023-05-10T07:50:56.494Z,964.00
2023-05-10T07:51:56.474Z,944.00
2023-05-10T07:52:56.462Z,972.00
2023-05-10T07:53:56.487Z,872.00
2023-05-10T07:54:56.445Z,892.00
2023-05-10T07:55:56.453Z,908.00
2023-05-10T07:56:56.447Z,872.00
2023-05-10T07:57:56.414Z,852.00
2023-05-10T07:58:56.403Z,996.00
2023-05-10T07:59:56.412Z,1064.00
2023-05-10T08:00:56.377Z,1096.00
2023-05-10T08:01:56.506Z,1100.00
2023-05-10T08:02:56.442Z,1120.00
2023-05-10T08:03:56.393Z,1224.00
2023-05-10T08:04:56.371Z,1316.00
2023-05-10T08:05:56.319Z,1244.00
2023-05-10T08:06:56.310Z,1124.00
2023-05-10T08:07:56.305Z,1024.00
2023-05-10T08:08:56.290Z,1016.00
2023-05-10T08:09:56.296Z,980.00
2023-05-10T08:10:56.288Z,1044.00
2023-05-10T08:11:56.270Z,988.00
2023-05-10T08:12:56.245Z,932.00
2023-05-10T08:13:56.225Z,928.00
2023-05-10T08:14:56.222Z,988.00
2023-05-10T08:15:56.284Z,1052.00
2023-05-10T08:16:56.211Z,1120.00
2023-05-10T08:17:56.199Z,1088.00
2023-05-10T08:18:56.304Z,1036.00
2023-05-10T08:19:56.162Z,1036.00
2023-05-10T08:20:56.171Z,1120.00
2023-05-10T08:21:56.170Z,1232.00
2023-05-10T08:22:56.149Z,1212.00
2023-05-10T08:23:56.124Z,1196.00
2023-05-10T08:24:56.109Z,1108.00
2023-05-10T08:25:56.086Z,1108.00
2023-05-10T08:26:56.094Z,996.00
2023-05-10T08:27:56.330Z,876.00
2023-05-10T08:28:56.066Z,712.00
2023-05-10T08:29:56.049Z,588.00
2023-05-10T08:30:56.062Z,560.00
2023-05-10T08:31:56.046Z,616.00
2023-05-10T08:32:56.062Z,692.00
2023-05-10T08:33:56.045Z,688.00
2023-05-10T08:34:56.010Z,652.00
2023-05-10T08:35:56.000Z,792.00
2023-05-10T08:36:55.973Z,812.00
2023-05-10T08:37:55.980Z,892.00
2023-05-10T08:38:55.968Z,864.00
2023-05-10T08:39:55.935Z,816.00
2023-05-10T08:40:55.935Z,816.00
2023-05-10T08:41:55.905Z,868.00
2023-05-10T08:42:55.900Z,932.00
2023-05-10T08:43:55.923Z,964.00
2023-05-10T08:44:55.872Z,988.00
2023-05-10T08:45:55.908Z,1052.00
2023-05-10T08:46:55.979Z,1220.00
2023-05-10T08:47:55.871Z,1236.00
2023-05-10T08:48:55.856Z,1448.00
2023-05-10T08:49:55.830Z,1496.00
2023-05-10T08:50:55.818Z,1504.00
2023-05-10T08:51:55.822Z,1444.00
2023-05-10T08:52:55.783Z,1424.00
2023-05-10T08:53:55.791Z,1280.00
2023-05-10T08:54:55.805Z,1264.00
2023-05-10T08:55:55.763Z,1152.00
2023-05-10T08:56:55.749Z,1004.00
2023-05-10T08:57:55.725Z,908.00
2023-05-10T08:58:55.755Z,872.00
2023-05-10T08:59:55.729Z,744.00
2023-05-10T09:00:55.781Z,684.00
2023-05-10T09:01:55.687Z,640.00
2023-05-10T09:02:55.727Z,524.00
2023-05-10T09:03:55.695Z,552.00
2023-05-10T09:04:55.710Z,540.00
2023-05-10T09:05:55.636Z,624.00
2023-05-10T09:06:55.659Z,608.00
2023-05-10T09:07:55.621Z,588.00
2023-05-10T09:08:55.617Z,588.00
2023-05-10T09:09:55.606Z,680.00
2023-05-10T09:10:55.604Z,632.00
2023-05-10T09:11:55.593Z,580.00
2023-05-10T09:12:56.577Z,516.00
2023-05-10T09:13:55.554Z,560.00
2023-05-10T09:14:55.539Z,668.00
2023-05-10T09:15:55.587Z,696.00
2023-05-10T09:16:55.551Z,704.00
2023-05-10T09:17:55.571Z,744.00
2023-05-10T09:18:55.679Z,828.00
2023-05-10T09:19:55.480Z,888.00
2023-05-10T09:20:55.478Z,912.00
2023-05-10T09:21:55.471Z,916.00
2023-05-10T09:22:55.460Z,968.00
2023-05-10T09:23:55.459Z,1076.00
2023-05-10T09:24:55.432Z,1140.00
2023-05-10T09:25:55.412Z,1100.00
2023-05-10T09:26:55.404Z,1048.00
2023-05-10T09:27:55.390Z,1064.00
2023-05-10T09:28:55.389Z,1004.00
2023-05-10T09:29:55.410Z,1104.00
2023-05-10T09:30:55.399Z,1120.00
2023-05-10T09:31:55.366Z,1048.00
2023-05-10T09:32:55.366Z,1020.00
2023-05-10T09:33:55.324Z,980.00
2023-05-10T09:34:55.324Z,1012.00
2023-05-10T09:35:55.294Z,992.00
2023-05-10T09:36:55.288Z,928.00
2023-05-10T09:37:55.287Z,880.00
2023-05-10T09:38:55.265Z,940.00
2023-05-10T09:39:55.281Z,972.00
2023-05-10T09:40:55.282Z,888.00
2023-05-10T09:41:55.236Z,772.00
2023-05-10T09:42:55.225Z,656.00
2023-05-10T09:43:55.202Z,592.00
2023-05-10T09:44:55.203Z,644.00
2023-05-10T09:45:55.516Z,664.00
2023-05-10T09:46:55.185Z,688.00
2023-05-10T09:47:55.504Z,644.00
2023-05-10T09:48:55.169Z,720.00
2023-05-10T09:49:55.160Z,708.00
2023-05-10T09:50:55.159Z,740.00
2023-05-10T09:51:55.129Z,696.00
2023-05-10T09:52:55.122Z,800.00
2023-05-10T09:53:55.111Z,932.00
2023-05-10T09:54:55.090Z,1108.00
2023-05-10T09:55:55.071Z,1172.00
2023-05-10T09:56:55.085Z,1312.00
2023-05-10T09:57:55.048Z,1308.00
2023-05-10T09:58:55.045Z,1188.00
2023-05-10T09:59:55.049Z,1228.00
2023-05-10T10:00:55.027Z,1256.00
2023-05-10T10:01:55.172Z,1396.00
2023-05-10T10:02:55.230Z,1488.00
2023-05-10T10:03:54.998Z,2032.00
2023-05-10T10:04:55.015Z,1976.00
2023-05-10T10:05:54.965Z,2232.00
2023-05-10T10:06:54.977Z,2340.00
2023-05-10T10:07:54.933Z,2180.00
2023-05-10T10:08:56.725Z,2288.00
2023-05-10T10:09:54.922Z,2368.00
2023-05-10T10:10:54.927Z,2708.00
2023-05-10T10:11:54.896Z,2388.00
2023-05-10T10:12:54.921Z,2292.00
2023-05-10T10:13:54.868Z,2264.00
2023-05-10T10:14:54.856Z,2332.00
2023-05-10T10:15:54.867Z,2784.00
2023-05-10T10:17:06.720Z,2540.00
2023-05-10T10:17:55.866Z,2216.00
2023-05-10T10:18:54.892Z,2092.00
2023-05-10T10:19:54.817Z,1964.00
2023-05-10T10:20:54.788Z,1912.00
2023-05-10T10:21:54.793Z,1968.00
2023-05-10T10:22:54.787Z,2176.00
2023-05-10T10:23:54.758Z,2072.00
2023-05-10T10:24:54.746Z,2176.00
2023-05-10T10:25:54.752Z,2232.00
2023-05-10T10:26:54.722Z,2048.00
2023-05-10T10:27:54.819Z,2000.00
2023-05-10T10:28:54.709Z,1980.00
2023-05-10T10:29:54.687Z,2032.00
2023-05-10T10:30:54.712Z,2160.00
2023-05-10T10:31:54.766Z,1944.00
2023-05-10T10:32:54.687Z,1872.00
2023-05-10T10:33:54.660Z,1752.00
2023-05-10T10:34:54.641Z,1616.00
2023-05-10T10:35:54.650Z,1556.00
2023-05-10T10:36:54.600Z,1532.00
2023-05-10T10:37:54.592Z,1516.00
2023-05-10T10:38:54.604Z,1448.00
2023-05-10T10:39:54.572Z,1208.00
2023-05-10T10:40:54.567Z,1160.00
2023-05-10T10:41:54.558Z,2236.00
2023-05-10T10:42:54.558Z,1204.00
2023-05-10T10:43:54.555Z,1264.00
2023-05-10T10:44:54.521Z,1308.00
2023-05-10T10:45:54.506Z,1408.00
2023-05-10T10:46:54.537Z,1504.00
2023-05-10T10:47:54.531Z,2044.00
2023-05-10T10:48:54.484Z,1940.00
2023-05-10T10:49:54.473Z,1956.00
2023-05-10T10:50:54.456Z,1876.00
2023-05-10T10:51:54.459Z,2056.00
2023-05-10T10:52:54.468Z,2736.00
2023-05-10T10:53:54.447Z,3836.00
2023-05-10T10:54:54.427Z,2828.00
2023-05-10T10:55:54.410Z,4336.00
2023-05-10T10:56:54.394Z,2112.00
2023-05-10T10:57:54.367Z,1868.00
2023-05-10T10:58:54.389Z,1672.00
2023-05-10T10:59:54.354Z,1628.00
2023-05-10T11:00:54.364Z,1608.00
2023-05-10T11:01:54.346Z,1624.00
2023-05-10T11:02:54.372Z,1680.00
2023-05-10T11:03:54.349Z,1664.00
2023-05-10T11:04:54.305Z,1944.00
2023-05-10T11:05:54.291Z,2284.00
2023-05-10T11:06:54.260Z,2864.00
2023-05-10T11:07:54.282Z,3408.00
2023-05-10T11:08:54.238Z,4040.00
2023-05-10T11:09:54.266Z,2628.00
2023-05-10T11:10:54.225Z,2220.00
2023-05-10T11:11:54.209Z,2304.00
2023-05-10T11:12:54.219Z,3656.00
2023-05-10T11:13:54.183Z,3900.00
2023-05-10T11:14:54.207Z,3496.00
2023-05-10T11:15:54.178Z,4060.00
2023-05-10T11:16:54.277Z,4104.00
2023-05-10T11:17:54.190Z,4008.00
2023-05-10T11:18:54.153Z,3932.00
2023-05-10T11:19:54.115Z,2936.00
2023-05-10T11:20:54.120Z,2440.00
2023-05-10T11:21:54.105Z,3128.00
2023-05-10T11:22:54.076Z,2188.00
2023-05-10T11:23:54.094Z,1804.00
2023-05-10T11:24:54.063Z,3052.00
2023-05-10T11:25:54.050Z,2120.00
2023-05-10T11:26:54.048Z,2308.00
2023-05-10T11:27:54.029Z,2496.00
2023-05-10T11:28:54.012Z,4000.00
2023-05-10T11:29:54.003Z,3396.00
2023-05-10T11:30:53.996Z,1772.00
2023-05-10T11:31:54.022Z,1356.00
2023-05-10T11:32:54.081Z,1128.00
2023-05-10T11:33:53.976Z,1016.00
2023-05-10T11:34:53.965Z,940.00
2023-05-10T11:35:53.937Z,880.00
2023-05-10T11:36:53.931Z,808.00
2023-05-10T11:37:53.938Z,816.00
2023-05-10T11:38:53.901Z,804.00
2023-05-10T11:39:53.926Z,808.00
2023-05-10T11:40:53.892Z,780.00
2023-05-10T11:41:53.871Z,784.00
2023-05-10T11:42:53.868Z,880.00
2023-05-10T11:43:53.848Z,1040.00
2023-05-10T11:44:53.851Z,1160.00
2023-05-10T11:45:53.908Z,1228.00
2023-05-10T11:46:53.817Z,1376.00
2023-05-10T11:47:53.834Z,1452.00
2023-05-10T11:48:53.810Z,1456.00
2023-05-10T11:49:53.776Z,1440.00
2023-05-10T11:50:53.806Z,1392.00
2023-05-10T11:51:53.758Z,1344.00
2023-05-10T11:52:53.783Z,1248.00
2023-05-10T11:53:53.741Z,1176.00
2023-05-10T11:54:53.715Z,1144.00
2023-05-10T11:55:53.736Z,1264.00
2023-05-10T11:56:53.697Z,1208.00
2023-05-10T11:57:53.706Z,1212.00
2023-05-10T11:58:53.689Z,1168.00
2023-05-10T11:59:53.670Z,1164.00
2023-05-10T12:00:53.646Z,1176.00
2023-05-10T12:01:53.672Z,1168.00
2023-05-10T12:02:53.726Z,1308.00
2023-05-10T12:03:53.823Z,1416.00
2023-05-10T12:04:53.676Z,1824.00
2023-05-10T12:05:53.614Z,1640.00
2023-05-10T12:06:53.576Z,1712.00
2023-05-10T12:07:53.591Z,1816.00
2023-05-10T12:08:53.700Z,1828.00
2023-05-10T12:09:53.551Z,1800.00
2023-05-10T12:10:53.549Z,1808.00
2023-05-10T12:11:53.562Z,1816.00
2023-05-10T12:12:53.519Z,1868.00
2023-05-10T12:13:53.507Z,1968.00
2023-05-10T12:14:53.507Z,1788.00
2023-05-10T12:15:53.542Z,1740.00
2023-05-10T12:16:53.754Z,1720.00
2023-05-10T12:17:53.475Z,1708.00
2023-05-10T12:18:53.509Z,1748.00
2023-05-10T12:19:53.432Z,1708.00
2023-05-10T12:20:53.460Z,1752.00
2023-05-10T12:21:53.417Z,1784.00
2023-05-10T12:22:53.399Z,1756.00
2023-05-10T12:23:53.395Z,1860.00
2023-05-10T12:24:53.382Z,1700.00
2023-05-10T12:25:53.378Z,1700.00
2023-05-10T12:26:53.364Z,1604.00
2023-05-10T12:27:53.364Z,1784.00
2023-05-10T12:28:53.350Z,1836.00
2023-05-10T12:29:53.323Z,1596.00
2023-05-10T12:30:53.314Z,1812.00
2023-05-10T12:31:53.397Z,1816.00
2023-05-10T12:32:53.325Z,1728.00
2023-05-10T12:33:53.299Z,1640.00
2023-05-10T12:34:53.275Z,1572.00
2023-05-10T12:35:53.253Z,1496.00
2023-05-10T12:36:53.252Z,1436.00
2023-05-10T12:37:53.228Z,1384.00